sensor_id;sensor_type;location;lat;lon;timestamp;P1;durP1;ratioP1;P2;durP2;ratioP2
78614;SDS011;67937;52.488;20.952;2023-03-31T00:00:53;11.20;;;5.30;;
78614;SDS011;67937;52.488;20.952;2023-03-31T00:03:23;7.50;;;5.50;;
78614;SDS011;67937;52.488;20.952;2023-03-31T00:05:57;8.00;;;4.60;;
78614;SDS011;67937;52.488;20.952;2023-03-31T00:08:28;8.20;;;4.90;;
78614;SDS011;67937;52.488;20.952;2023-03-31T00:11:01;6.90;;;4.70;;
78614;SDS011;67937;52.488;20.952;2023-03-31T00:13:32;3.60;;;3.20;;
78614;SDS011;67937;52.488;20.952;2023-03-31T00:16:03;6.90;;;5.10;;
78614;SDS011;67937;52.488;20.952;2023-03-31T00:18:33;7.00;;;4.80;;
78614;SDS011;67937;52.488;20.952;2023-03-31T00:21:11;6.30;;;4.20;;
78614;SDS011;67937;52.488;20.952;2023-03-31T00:23:56;6.40;;;4.70;;
78614;SDS011;67937;52.488;20.952;2023-03-31T00:26:28;6.80;;;4.40;;
78614;SDS011;67937;52.488;20.952;2023-03-31T00:28:57;6.90;;;4.70;;
78614;SDS011;67937;52.488;20.952;2023-03-31T00:31:25;6.00;;;4.30;;
78614;SDS011;67937;52.488;20.952;2023-03-31T00:33:54;6.00;;;4.70;;
78614;SDS011;67937;52.488;20.952;2023-03-31T00:36:23;6.50;;;4.60;;
78614;SDS011;67937;52.488;20.952;2023-03-31T00:38:57;8.00;;;4.50;;
78614;SDS011;67937;52.488;20.952;2023-03-31T00:41:28;8.10;;;3.90;;
78614;SDS011;67937;52.488;20.952;2023-03-31T00:44:40;6.70;;;4.10;;
78614;SDS011;67937;52.488;20.952;2023-03-31T00:49:46;5.80;;;4.30;;
78614;SDS011;67937;52.488;20.952;2023-03-31T00:52:22;5.60;;;3.60;;
78614;SDS011;67937;52.488;20.952;2023-03-31T00:54:55;5.70;;;4.40;;
78614;SDS011;67937;52.488;20.952;2023-03-31T00:57:28;7.60;;;4.70;;
78614;SDS011;67937;52.488;20.952;2023-03-31T01:00:07;8.90;;;4.40;;
78614;SDS011;67937;52.488;20.952;2023-03-31T01:02:43;5.40;;;4.30;;
78614;SDS011;67937;52.488;20.952;2023-03-31T01:05:18;5.90;;;3.90;;
78614;SDS011;67937;52.488;20.952;2023-03-31T01:08:08;5.20;;;3.90;;
78614;SDS011;67937;52.488;20.952;2023-03-31T01:10:38;8.00;;;3.90;;
78614;SDS011;67937;52.488;20.952;2023-03-31T01:13:10;6.10;;;3.70;;
78614;SDS011;67937;52.488;20.952;2023-03-31T01:15:42;6.20;;;4.00;;
78614;SDS011;67937;52.488;20.952;2023-03-31T01:18:10;6.90;;;3.80;;
78614;SDS011;67937;52.488;20.952;2023-03-31T01:23:37;8.20;;;4.00;;
78614;SDS011;67937;52.488;20.952;2023-03-31T01:28:49;6.50;;;4.60;;
78614;SDS011;67937;52.488;20.952;2023-03-31T01:40:28;6.00;;;4.80;;
78614;SDS011;67937;52.488;20.952;2023-03-31T01:46:01;6.50;;;4.50;;
78614;SDS011;67937;52.488;20.952;2023-03-31T01:51:48;7.00;;;4.50;;
78614;SDS011;67937;52.488;20.952;2023-03-31T02:00:26;9.90;;;5.90;;
78614;SDS011;67937;52.488;20.952;2023-03-31T02:05:26;9.90;;;5.30;;
78614;SDS011;67937;52.488;20.952;2023-03-31T02:08:02;7.30;;;5.20;;
78614;SDS011;67937;52.488;20.952;2023-03-31T02:10:35;6.20;;;5.40;;
78614;SDS011;67937;52.488;20.952;2023-03-31T02:13:04;9.10;;;6.20;;
78614;SDS011;67937;52.488;20.952;2023-03-31T02:15:36;8.60;;;5.70;;
78614;SDS011;67937;52.488;20.952;2023-03-31T02:18:09;6.20;;;4.30;;
78614;SDS011;67937;52.488;20.952;2023-03-31T02:20:42;6.70;;;5.40;;
78614;SDS011;67937;52.488;20.952;2023-03-31T02:23:14;8.90;;;5.40;;
78614;SDS011;67937;52.488;20.952;2023-03-31T02:26:35;8.00;;;5.60;;
78614;SDS011;67937;52.488;20.952;2023-03-31T02:28:46;8.10;;;5.80;;
78614;SDS011;67937;52.488;20.952;2023-03-31T02:33:56;8.20;;;5.10;;
78614;SDS011;67937;52.488;20.952;2023-03-31T02:36:24;7.50;;;5.10;;
78614;SDS011;67937;52.488;20.952;2023-03-31T02:38:54;9.60;;;7.10;;
78614;SDS011;67937;52.488;20.952;2023-03-31T02:41:25;7.90;;;5.80;;
78614;SDS011;67937;52.488;20.952;2023-03-31T02:43:54;8.30;;;5.50;;
78614;SDS011;67937;52.488;20.952;2023-03-31T02:46:23;11.50;;;6.30;;
78614;SDS011;67937;52.488;20.952;2023-03-31T02:48:53;8.10;;;5.80;;
78614;SDS011;67937;52.488;20.952;2023-03-31T03:02:17;7.70;;;6.50;;
78614;SDS011;67937;52.488;20.952;2023-03-31T03:05:20;11.80;;;7.20;;
78614;SDS011;67937;52.488;20.952;2023-03-31T03:13:59;8.70;;;5.60;;
78614;SDS011;67937;52.488;20.952;2023-03-31T03:16:38;9.20;;;6.40;;
78614;SDS011;67937;52.488;20.952;2023-03-31T03:19:16;10.00;;;6.50;;
78614;SDS011;67937;52.488;20.952;2023-03-31T03:21:47;9.30;;;6.60;;
78614;SDS011;67937;52.488;20.952;2023-03-31T03:24:15;8.00;;;5.50;;
78614;SDS011;67937;52.488;20.952;2023-03-31T03:26:44;7.40;;;5.30;;
78614;SDS011;67937;52.488;20.952;2023-03-31T03:29:13;9.00;;;5.90;;
78614;SDS011;67937;52.488;20.952;2023-03-31T03:31:41;9.90;;;5.80;;
78614;SDS011;67937;52.488;20.952;2023-03-31T03:34:09;7.20;;;5.80;;
78614;SDS011;67937;52.488;20.952;2023-03-31T03:36:38;7.90;;;6.30;;
78614;SDS011;67937;52.488;20.952;2023-03-31T03:39:06;7.70;;;5.60;;
78614;SDS011;67937;52.488;20.952;2023-03-31T03:41:34;6.90;;;5.90;;
78614;SDS011;67937;52.488;20.952;2023-03-31T03:44:03;8.10;;;5.00;;
78614;SDS011;67937;52.488;20.952;2023-03-31T03:46:31;7.10;;;5.70;;
78614;SDS011;67937;52.488;20.952;2023-03-31T03:48:59;7.60;;;5.70;;
78614;SDS011;67937;52.488;20.952;2023-03-31T03:51:27;9.50;;;5.70;;
78614;SDS011;67937;52.488;20.952;2023-03-31T03:53:55;8.60;;;5.80;;
78614;SDS011;67937;52.488;20.952;2023-03-31T03:56:23;7.30;;;5.20;;
78614;SDS011;67937;52.488;20.952;2023-03-31T03:58:52;7.90;;;5.40;;
78614;SDS011;67937;52.488;20.952;2023-03-31T04:01:20;8.60;;;5.40;;
78614;SDS011;67937;52.488;20.952;2023-03-31T04:03:48;8.90;;;6.70;;
78614;SDS011;67937;52.488;20.952;2023-03-31T04:06:16;7.80;;;6.20;;
78614;SDS011;67937;52.488;20.952;2023-03-31T04:08:44;10.30;;;6.90;;
78614;SDS011;67937;52.488;20.952;2023-03-31T04:11:16;10.10;;;6.20;;
78614;SDS011;67937;52.488;20.952;2023-03-31T04:13:45;9.60;;;6.00;;
78614;SDS011;67937;52.488;20.952;2023-03-31T04:16:14;7.90;;;6.00;;
78614;SDS011;67937;52.488;20.952;2023-03-31T04:18:42;10.30;;;6.90;;
78614;SDS011;67937;52.488;20.952;2023-03-31T04:21:11;8.90;;;6.00;;
78614;SDS011;67937;52.488;20.952;2023-03-31T04:23:48;8.90;;;6.20;;
78614;SDS011;67937;52.488;20.952;2023-03-31T04:26:27;9.10;;;6.20;;
78614;SDS011;67937;52.488;20.952;2023-03-31T04:29:05;8.60;;;6.10;;
78614;SDS011;67937;52.488;20.952;2023-03-31T04:31:33;8.70;;;6.80;;
78614;SDS011;67937;52.488;20.952;2023-03-31T04:34:04;9.30;;;6.50;;
78614;SDS011;67937;52.488;20.952;2023-03-31T04:36:42;8.80;;;6.00;;
78614;SDS011;67937;52.488;20.952;2023-03-31T04:39:13;8.20;;;6.30;;
78614;SDS011;67937;52.488;20.952;2023-03-31T04:41:43;9.60;;;5.90;;
78614;SDS011;67937;52.488;20.952;2023-03-31T04:44:11;9.60;;;6.70;;
78614;SDS011;67937;52.488;20.952;2023-03-31T04:46:39;8.10;;;5.60;;
78614;SDS011;67937;52.488;20.952;2023-03-31T04:49:07;10.80;;;5.90;;
78614;SDS011;67937;52.488;20.952;2023-03-31T04:51:35;9.40;;;6.10;;
78614;SDS011;67937;52.488;20.952;2023-03-31T04:54:03;9.10;;;6.20;;
78614;SDS011;67937;52.488;20.952;2023-03-31T04:56:31;7.50;;;5.90;;
78614;SDS011;67937;52.488;20.952;2023-03-31T04:58:59;8.30;;;6.40;;
78614;SDS011;67937;52.488;20.952;2023-03-31T05:01:29;8.80;;;5.80;;
78614;SDS011;67937;52.488;20.952;2023-03-31T05:03:58;9.20;;;5.40;;
78614;SDS011;67937;52.488;20.952;2023-03-31T05:06:26;8.40;;;6.10;;
78614;SDS011;67937;52.488;20.952;2023-03-31T05:08:55;10.30;;;6.30;;
78614;SDS011;67937;52.488;20.952;2023-03-31T05:11:23;9.40;;;5.90;;
78614;SDS011;67937;52.488;20.952;2023-03-31T05:13:51;7.20;;;5.70;;
78614;SDS011;67937;52.488;20.952;2023-03-31T05:16:19;7.70;;;5.40;;
78614;SDS011;67937;52.488;20.952;2023-03-31T05:18:47;9.70;;;5.80;;
78614;SDS011;67937;52.488;20.952;2023-03-31T05:21:18;10.70;;;6.80;;
78614;SDS011;67937;52.488;20.952;2023-03-31T05:23:47;9.70;;;6.80;;
78614;SDS011;67937;52.488;20.952;2023-03-31T05:26:16;7.50;;;6.10;;
78614;SDS011;67937;52.488;20.952;2023-03-31T05:28:44;9.20;;;6.10;;
78614;SDS011;67937;52.488;20.952;2023-03-31T05:31:12;8.00;;;5.70;;
78614;SDS011;67937;52.488;20.952;2023-03-31T05:33:40;8.20;;;6.40;;
78614;SDS011;67937;52.488;20.952;2023-03-31T05:36:12;8.40;;;5.20;;
78614;SDS011;67937;52.488;20.952;2023-03-31T05:38:42;6.50;;;4.40;;
78614;SDS011;67937;52.488;20.952;2023-03-31T05:41:11;10.20;;;6.70;;
78614;SDS011;67937;52.488;20.952;2023-03-31T05:43:39;10.10;;;6.50;;
78614;SDS011;67937;52.488;20.952;2023-03-31T05:46:08;12.60;;;6.30;;
78614;SDS011;67937;52.488;20.952;2023-03-31T05:48:36;12.30;;;6.40;;
78614;SDS011;67937;52.488;20.952;2023-03-31T05:51:04;8.30;;;6.50;;
78614;SDS011;67937;52.488;20.952;2023-03-31T05:53:32;9.00;;;5.80;;
78614;SDS011;67937;52.488;20.952;2023-03-31T05:56:02;11.80;;;7.10;;
78614;SDS011;67937;52.488;20.952;2023-03-31T05:58:35;11.60;;;6.70;;
78614;SDS011;67937;52.488;20.952;2023-03-31T06:03:36;10.40;;;6.80;;
78614;SDS011;67937;52.488;20.952;2023-03-31T06:06:07;12.60;;;7.10;;
78614;SDS011;67937;52.488;20.952;2023-03-31T06:08:38;11.50;;;7.30;;
78614;SDS011;67937;52.488;20.952;2023-03-31T06:11:07;9.90;;;6.20;;
78614;SDS011;67937;52.488;20.952;2023-03-31T06:13:37;15.40;;;6.90;;
78614;SDS011;67937;52.488;20.952;2023-03-31T06:16:06;11.60;;;6.70;;
78614;SDS011;67937;52.488;20.952;2023-03-31T06:18:36;12.00;;;8.10;;
78614;SDS011;67937;52.488;20.952;2023-03-31T06:21:04;11.40;;;7.20;;
78614;SDS011;67937;52.488;20.952;2023-03-31T06:23:33;15.20;;;7.70;;
78614;SDS011;67937;52.488;20.952;2023-03-31T06:26:02;17.90;;;9.80;;
78614;SDS011;67937;52.488;20.952;2023-03-31T06:28:35;18.70;;;9.00;;
78614;SDS011;67937;52.488;20.952;2023-03-31T06:31:07;19.30;;;10.60;;
78614;SDS011;67937;52.488;20.952;2023-03-31T06:33:38;16.60;;;10.40;;
78614;SDS011;67937;52.488;20.952;2023-03-31T06:36:08;22.40;;;14.80;;
78614;SDS011;67937;52.488;20.952;2023-03-31T06:38:37;13.00;;;7.90;;
78614;SDS011;67937;52.488;20.952;2023-03-31T06:41:05;14.20;;;9.00;;
78614;SDS011;67937;52.488;20.952;2023-03-31T06:43:34;8.60;;;6.20;;
78614;SDS011;67937;52.488;20.952;2023-03-31T06:46:03;12.60;;;8.70;;
78614;SDS011;67937;52.488;20.952;2023-03-31T06:48:31;15.20;;;7.80;;
78614;SDS011;67937;52.488;20.952;2023-03-31T06:51:00;9.90;;;6.70;;
78614;SDS011;67937;52.488;20.952;2023-03-31T06:53:30;13.20;;;7.40;;
78614;SDS011;67937;52.488;20.952;2023-03-31T06:55:58;9.30;;;8.10;;
78614;SDS011;67937;52.488;20.952;2023-03-31T06:58:26;13.10;;;7.00;;
78614;SDS011;67937;52.488;20.952;2023-03-31T07:00:54;11.30;;;7.00;;
78614;SDS011;67937;52.488;20.952;2023-03-31T07:03:22;11.60;;;7.10;;
78614;SDS011;67937;52.488;20.952;2023-03-31T07:05:50;14.70;;;7.70;;
78614;SDS011;67937;52.488;20.952;2023-03-31T07:08:20;6.80;;;5.90;;
78614;SDS011;67937;52.488;20.952;2023-03-31T07:10:48;12.80;;;7.20;;
78614;SDS011;67937;52.488;20.952;2023-03-31T07:13:21;12.80;;;8.50;;
78614;SDS011;67937;52.488;20.952;2023-03-31T07:15:49;11.10;;;7.80;;
78614;SDS011;67937;52.488;20.952;2023-03-31T07:18:17;11.20;;;7.70;;
78614;SDS011;67937;52.488;20.952;2023-03-31T07:20:47;10.50;;;7.20;;
78614;SDS011;67937;52.488;20.952;2023-03-31T07:23:16;10.70;;;7.20;;
78614;SDS011;67937;52.488;20.952;2023-03-31T07:25:45;7.30;;;6.40;;
78614;SDS011;67937;52.488;20.952;2023-03-31T07:28:14;10.70;;;5.80;;
78614;SDS011;67937;52.488;20.952;2023-03-31T07:30:43;10.30;;;6.10;;
78614;SDS011;67937;52.488;20.952;2023-03-31T07:33:11;11.50;;;7.30;;
78614;SDS011;67937;52.488;20.952;2023-03-31T07:35:40;10.40;;;7.30;;
78614;SDS011;67937;52.488;20.952;2023-03-31T07:38:09;9.50;;;6.50;;
78614;SDS011;67937;52.488;20.952;2023-03-31T07:40:38;10.10;;;7.00;;
78614;SDS011;67937;52.488;20.952;2023-03-31T07:43:07;11.30;;;6.70;;
78614;SDS011;67937;52.488;20.952;2023-03-31T07:45:35;11.40;;;6.60;;
78614;SDS011;67937;52.488;20.952;2023-03-31T07:50:34;7.50;;;6.00;;
78614;SDS011;67937;52.488;20.952;2023-03-31T07:53:02;10.50;;;6.70;;
78614;SDS011;67937;52.488;20.952;2023-03-31T07:55:30;8.90;;;5.60;;
78614;SDS011;67937;52.488;20.952;2023-03-31T07:57:58;6.20;;;4.90;;
78614;SDS011;67937;52.488;20.952;2023-03-31T08:00:26;7.00;;;5.70;;
78614;SDS011;67937;52.488;20.952;2023-03-31T08:02:54;7.40;;;5.40;;
78614;SDS011;67937;52.488;20.952;2023-03-31T08:05:22;8.80;;;5.80;;
78614;SDS011;67937;52.488;20.952;2023-03-31T08:07:50;8.00;;;4.50;;
78614;SDS011;67937;52.488;20.952;2023-03-31T08:10:20;10.30;;;7.40;;
78614;SDS011;67937;52.488;20.952;2023-03-31T08:12:50;5.60;;;4.80;;
78614;SDS011;67937;52.488;20.952;2023-03-31T08:15:18;12.00;;;5.80;;
78614;SDS011;67937;52.488;20.952;2023-03-31T08:17:46;9.10;;;5.10;;
78614;SDS011;67937;52.488;20.952;2023-03-31T08:20:14;7.70;;;5.80;;
78614;SDS011;67937;52.488;20.952;2023-03-31T08:22:42;16.00;;;5.00;;
78614;SDS011;67937;52.488;20.952;2023-03-31T08:25:10;4.40;;;3.80;;
78614;SDS011;67937;52.488;20.952;2023-03-31T08:27:39;10.60;;;4.70;;
78614;SDS011;67937;52.488;20.952;2023-03-31T08:30:08;7.30;;;5.70;;
78614;SDS011;67937;52.488;20.952;2023-03-31T08:32:37;8.00;;;6.30;;
78614;SDS011;67937;52.488;20.952;2023-03-31T08:35:06;6.00;;;5.40;;
78614;SDS011;67937;52.488;20.952;2023-03-31T08:37:35;5.10;;;4.20;;
78614;SDS011;67937;52.488;20.952;2023-03-31T08:40:04;3.50;;;3.20;;
78614;SDS011;67937;52.488;20.952;2023-03-31T08:42:41;7.20;;;6.10;;
78614;SDS011;67937;52.488;20.952;2023-03-31T08:45:21;7.20;;;5.00;;
78614;SDS011;67937;52.488;20.952;2023-03-31T08:47:56;7.30;;;5.40;;
78614;SDS011;67937;52.488;20.952;2023-03-31T08:50:30;5.60;;;4.10;;
78614;SDS011;67937;52.488;20.952;2023-03-31T08:53:05;8.10;;;5.80;;
78614;SDS011;67937;52.488;20.952;2023-03-31T08:58:38;6.20;;;5.60;;
78614;SDS011;67937;52.488;20.952;2023-03-31T09:17:49;7.50;;;6.50;;
78614;SDS011;67937;52.488;20.952;2023-03-31T09:20:22;7.70;;;5.90;;
78614;SDS011;67937;52.488;20.952;2023-03-31T09:22:59;4.70;;;4.20;;
78614;SDS011;67937;52.488;20.952;2023-03-31T09:25:35;9.80;;;4.50;;
78614;SDS011;67937;52.488;20.952;2023-03-31T09:28:19;8.60;;;6.00;;
78614;SDS011;67937;52.488;20.952;2023-03-31T09:30:50;10.40;;;5.60;;
78614;SDS011;67937;52.488;20.952;2023-03-31T09:33:22;4.20;;;3.80;;
78614;SDS011;67937;52.488;20.952;2023-03-31T09:35:57;7.10;;;5.40;;
78614;SDS011;67937;52.488;20.952;2023-03-31T09:38:27;6.40;;;4.60;;
78614;SDS011;67937;52.488;20.952;2023-03-31T09:40:56;5.90;;;5.10;;
78614;SDS011;67937;52.488;20.952;2023-03-31T09:43:26;9.20;;;5.90;;
78614;SDS011;67937;52.488;20.952;2023-03-31T09:45:58;8.50;;;7.60;;
78614;SDS011;67937;52.488;20.952;2023-03-31T09:48:27;8.20;;;7.00;;
78614;SDS011;67937;52.488;20.952;2023-03-31T09:51:02;6.60;;;5.20;;
78614;SDS011;67937;52.488;20.952;2023-03-31T09:56:01;7.40;;;5.20;;
78614;SDS011;67937;52.488;20.952;2023-03-31T09:58:40;12.10;;;6.00;;
78614;SDS011;67937;52.488;20.952;2023-03-31T10:01:09;7.40;;;5.30;;
78614;SDS011;67937;52.488;20.952;2023-03-31T10:03:52;6.40;;;5.50;;
78614;SDS011;67937;52.488;20.952;2023-03-31T10:06:22;5.30;;;4.00;;
78614;SDS011;67937;52.488;20.952;2023-03-31T10:09:01;5.20;;;4.10;;
78614;SDS011;67937;52.488;20.952;2023-03-31T10:11:31;9.90;;;7.40;;
78614;SDS011;67937;52.488;20.952;2023-03-31T10:14:03;4.20;;;3.80;;
78614;SDS011;67937;52.488;20.952;2023-03-31T10:19:10;5.50;;;3.30;;
78614;SDS011;67937;52.488;20.952;2023-03-31T10:21:44;6.80;;;3.70;;
78614;SDS011;67937;52.488;20.952;2023-03-31T10:24:19;7.30;;;4.30;;
78614;SDS011;67937;52.488;20.952;2023-03-31T10:26:48;4.50;;;3.40;;
78614;SDS011;67937;52.488;20.952;2023-03-31T10:29:24;3.70;;;3.40;;
78614;SDS011;67937;52.488;20.952;2023-03-31T10:32:30;4.60;;;3.40;;
78614;SDS011;67937;52.488;20.952;2023-03-31T10:35:05;5.70;;;3.50;;
78614;SDS011;67937;52.488;20.952;2023-03-31T10:37:42;4.80;;;3.00;;
78614;SDS011;67937;52.488;20.952;2023-03-31T10:40:14;4.90;;;4.00;;
78614;SDS011;67937;52.488;20.952;2023-03-31T10:42:46;3.40;;;2.90;;
78614;SDS011;67937;52.488;20.952;2023-03-31T10:45:25;6.20;;;3.60;;
78614;SDS011;67937;52.488;20.952;2023-03-31T10:50:32;3.70;;;2.70;;
78614;SDS011;67937;52.488;20.952;2023-03-31T10:53:08;2.60;;;2.40;;
78614;SDS011;67937;52.488;20.952;2023-03-31T11:01:19;5.00;;;3.20;;
78614;SDS011;67937;52.488;20.952;2023-03-31T11:04:15;5.00;;;2.90;;
78614;SDS011;67937;52.488;20.952;2023-03-31T11:09:52;3.30;;;2.20;;
78614;SDS011;67937;52.488;20.952;2023-03-31T11:23:43;3.30;;;1.90;;
78614;SDS011;67937;52.488;20.952;2023-03-31T11:26:14;3.20;;;1.70;;
78614;SDS011;67937;52.488;20.952;2023-03-31T11:35:02;3.80;;;2.20;;
78614;SDS011;67937;52.488;20.952;2023-03-31T11:38:15;2.90;;;1.70;;
78614;SDS011;67937;52.488;20.952;2023-03-31T11:40:58;3.40;;;2.20;;
78614;SDS011;67937;52.488;20.952;2023-03-31T11:43:35;4.40;;;1.50;;
78614;SDS011;67937;52.488;20.952;2023-03-31T11:46:18;2.40;;;1.30;;
78614;SDS011;67937;52.488;20.952;2023-03-31T11:51:56;1.90;;;1.70;;
78614;SDS011;67937;52.488;20.952;2023-03-31T11:57:10;2.30;;;1.60;;
78614;SDS011;67937;52.488;20.952;2023-03-31T11:59:54;3.10;;;1.60;;
78614;SDS011;67937;52.488;20.952;2023-03-31T12:05:17;4.10;;;2.10;;
78614;SDS011;67937;52.488;20.952;2023-03-31T12:11:14;2.80;;;1.70;;
78614;SDS011;67937;52.488;20.952;2023-03-31T12:21:41;3.10;;;1.80;;
78614;SDS011;67937;52.488;20.952;2023-03-31T12:24:13;5.90;;;2.10;;
78614;SDS011;67937;52.488;20.952;2023-03-31T12:29:30;4.40;;;2.20;;
78614;SDS011;67937;52.488;20.952;2023-03-31T12:32:06;4.00;;;1.90;;
78614;SDS011;67937;52.488;20.952;2023-03-31T12:34:43;4.30;;;1.80;;
78614;SDS011;67937;52.488;20.952;2023-03-31T12:38:07;4.30;;;2.20;;
78614;SDS011;67937;52.488;20.952;2023-03-31T12:43:35;2.00;;;1.80;;
78614;SDS011;67937;52.488;20.952;2023-03-31T12:46:30;3.10;;;1.60;;
78614;SDS011;67937;52.488;20.952;2023-03-31T12:57:23;1.50;;;1.40;;
78614;SDS011;67937;52.488;20.952;2023-03-31T13:00:39;3.30;;;1.90;;
78614;SDS011;67937;52.488;20.952;2023-03-31T13:02:49;3.60;;;2.10;;
78614;SDS011;67937;52.488;20.952;2023-03-31T13:08:04;3.40;;;1.60;;
78614;SDS011;67937;52.488;20.952;2023-03-31T13:10:51;3.80;;;1.90;;
78614;SDS011;67937;52.488;20.952;2023-03-31T13:13:24;3.70;;;1.70;;
78614;SDS011;67937;52.488;20.952;2023-03-31T13:15:54;4.60;;;2.00;;
78614;SDS011;67937;52.488;20.952;2023-03-31T13:18:25;1.70;;;1.50;;
78614;SDS011;67937;52.488;20.952;2023-03-31T13:20:58;3.70;;;1.60;;
78614;SDS011;67937;52.488;20.952;2023-03-31T13:23:32;3.00;;;1.40;;
78614;SDS011;67937;52.488;20.952;2023-03-31T13:26:02;2.50;;;1.80;;
78614;SDS011;67937;52.488;20.952;2023-03-31T13:28:33;2.80;;;1.40;;
78614;SDS011;67937;52.488;20.952;2023-03-31T13:31:09;2.80;;;1.50;;
78614;SDS011;67937;52.488;20.952;2023-03-31T13:47:48;2.20;;;1.20;;
78614;SDS011;67937;52.488;20.952;2023-03-31T13:53:26;4.20;;;1.60;;
78614;SDS011;67937;52.488;20.952;2023-03-31T13:59:04;1.80;;;1.60;;
78614;SDS011;67937;52.488;20.952;2023-03-31T14:10:40;1.50;;;1.40;;
78614;SDS011;67937;52.488;20.952;2023-03-31T14:13:13;2.30;;;1.60;;
78614;SDS011;67937;52.488;20.952;2023-03-31T14:18:29;1.90;;;1.20;;
78614;SDS011;67937;52.488;20.952;2023-03-31T14:21:04;2.50;;;1.80;;
78614;SDS011;67937;52.488;20.952;2023-03-31T14:38:15;2.10;;;1.70;;
78614;SDS011;67937;52.488;20.952;2023-03-31T14:40:48;2.70;;;1.60;;
78614;SDS011;67937;52.488;20.952;2023-03-31T14:43:20;4.30;;;2.00;;
78614;SDS011;67937;52.488;20.952;2023-03-31T14:45:57;3.80;;;1.90;;
78614;SDS011;67937;52.488;20.952;2023-03-31T14:48:35;3.90;;;1.70;;
78614;SDS011;67937;52.488;20.952;2023-03-31T14:53:41;3.90;;;1.90;;
78614;SDS011;67937;52.488;20.952;2023-03-31T14:58:39;3.70;;;2.00;;
78614;SDS011;67937;52.488;20.952;2023-03-31T15:01:23;4.50;;;2.10;;
78614;SDS011;67937;52.488;20.952;2023-03-31T15:04:10;3.40;;;1.90;;
78614;SDS011;67937;52.488;20.952;2023-03-31T15:06:43;3.50;;;2.10;;
78614;SDS011;67937;52.488;20.952;2023-03-31T15:09:16;3.20;;;1.80;;
78614;SDS011;67937;52.488;20.952;2023-03-31T15:11:52;3.40;;;2.30;;
78614;SDS011;67937;52.488;20.952;2023-03-31T15:14:33;2.90;;;2.00;;
78614;SDS011;67937;52.488;20.952;2023-03-31T15:17:03;1.50;;;1.40;;
78614;SDS011;67937;52.488;20.952;2023-03-31T15:19:34;2.80;;;1.90;;
78614;SDS011;67937;52.488;20.952;2023-03-31T15:24:44;4.00;;;2.90;;
78614;SDS011;67937;52.488;20.952;2023-03-31T15:27:14;6.40;;;3.10;;
78614;SDS011;67937;52.488;20.952;2023-03-31T15:30:06;4.00;;;2.20;;
78614;SDS011;67937;52.488;20.952;2023-03-31T15:32:36;3.50;;;2.10;;
78614;SDS011;67937;52.488;20.952;2023-03-31T15:35:06;3.90;;;2.30;;
78614;SDS011;67937;52.488;20.952;2023-03-31T15:37:59;2.70;;;2.00;;
78614;SDS011;67937;52.488;20.952;2023-03-31T15:40:31;5.20;;;2.50;;
78614;SDS011;67937;52.488;20.952;2023-03-31T15:43:07;2.00;;;1.80;;
78614;SDS011;67937;52.488;20.952;2023-03-31T15:48:21;5.20;;;2.30;;
78614;SDS011;67937;52.488;20.952;2023-03-31T15:51:13;2.70;;;2.10;;
78614;SDS011;67937;52.488;20.952;2023-03-31T15:53:44;1.90;;;1.50;;
78614;SDS011;67937;52.488;20.952;2023-03-31T15:58:58;2.90;;;1.80;;
78614;SDS011;67937;52.488;20.952;2023-03-31T16:01:31;2.60;;;2.10;;
78614;SDS011;67937;52.488;20.952;2023-03-31T16:04:05;1.60;;;1.40;;
78614;SDS011;67937;52.488;20.952;2023-03-31T16:06:51;1.90;;;1.80;;
78614;SDS011;67937;52.488;20.952;2023-03-31T16:09:26;2.40;;;1.70;;
78614;SDS011;67937;52.488;20.952;2023-03-31T16:12:11;2.10;;;1.90;;
78614;SDS011;67937;52.488;20.952;2023-03-31T16:17:23;4.10;;;1.90;;
78614;SDS011;67937;52.488;20.952;2023-03-31T16:19:57;5.90;;;1.80;;
78614;SDS011;67937;52.488;20.952;2023-03-31T16:22:33;1.60;;;1.50;;
78614;SDS011;67937;52.488;20.952;2023-03-31T16:25:13;1.60;;;1.40;;
78614;SDS011;67937;52.488;20.952;2023-03-31T16:27:46;3.70;;;1.70;;
78614;SDS011;67937;52.488;20.952;2023-03-31T16:30:18;3.40;;;1.60;;
78614;SDS011;67937;52.488;20.952;2023-03-31T16:35:49;1.60;;;1.00;;
78614;SDS011;67937;52.488;20.952;2023-03-31T16:38:22;1.80;;;1.50;;
78614;SDS011;67937;52.488;20.952;2023-03-31T16:40:51;5.10;;;1.70;;
78614;SDS011;67937;52.488;20.952;2023-03-31T16:43:22;1.40;;;1.30;;
78614;SDS011;67937;52.488;20.952;2023-03-31T16:45:56;2.70;;;1.50;;
78614;SDS011;67937;52.488;20.952;2023-03-31T16:48:26;3.80;;;2.00;;
78614;SDS011;67937;52.488;20.952;2023-03-31T16:50:56;2.60;;;1.60;;
78614;SDS011;67937;52.488;20.952;2023-03-31T16:53:26;1.60;;;1.30;;
78614;SDS011;67937;52.488;20.952;2023-03-31T16:58:24;4.30;;;1.60;;
78614;SDS011;67937;52.488;20.952;2023-03-31T17:00:54;4.00;;;1.70;;
78614;SDS011;67937;52.488;20.952;2023-03-31T17:03:24;2.20;;;1.60;;
78614;SDS011;67937;52.488;20.952;2023-03-31T17:05:54;2.20;;;1.70;;
78614;SDS011;67937;52.488;20.952;2023-03-31T17:08:24;3.10;;;2.30;;
78614;SDS011;67937;52.488;20.952;2023-03-31T17:10:54;2.30;;;1.90;;
78614;SDS011;67937;52.488;20.952;2023-03-31T17:13:26;1.80;;;1.40;;
78614;SDS011;67937;52.488;20.952;2023-03-31T17:15:54;1.80;;;1.70;;
78614;SDS011;67937;52.488;20.952;2023-03-31T17:18:23;3.00;;;2.00;;
78614;SDS011;67937;52.488;20.952;2023-03-31T17:20:51;3.80;;;2.00;;
78614;SDS011;67937;52.488;20.952;2023-03-31T17:23:20;2.60;;;2.00;;
78614;SDS011;67937;52.488;20.952;2023-03-31T17:25:49;3.50;;;2.80;;
78614;SDS011;67937;52.488;20.952;2023-03-31T17:28:19;2.70;;;2.30;;
78614;SDS011;67937;52.488;20.952;2023-03-31T17:30:47;3.10;;;2.50;;
78614;SDS011;67937;52.488;20.952;2023-03-31T17:33:15;4.60;;;2.40;;
78614;SDS011;67937;52.488;20.952;2023-03-31T17:35:44;3.80;;;2.30;;
78614;SDS011;67937;52.488;20.952;2023-03-31T17:38:12;2.80;;;2.30;;
78614;SDS011;67937;52.488;20.952;2023-03-31T17:40:40;3.40;;;2.10;;
78614;SDS011;67937;52.488;20.952;2023-03-31T17:43:08;3.10;;;2.50;;
78614;SDS011;67937;52.488;20.952;2023-03-31T17:45:36;2.60;;;2.40;;
78614;SDS011;67937;52.488;20.952;2023-03-31T17:48:04;3.10;;;2.40;;
78614;SDS011;67937;52.488;20.952;2023-03-31T17:50:35;1.90;;;1.80;;
78614;SDS011;67937;52.488;20.952;2023-03-31T17:53:03;2.30;;;2.10;;
78614;SDS011;67937;52.488;20.952;2023-03-31T17:58:04;1.00;;;1.00;;
78614;SDS011;67937;52.488;20.952;2023-03-31T18:00:33;2.10;;;1.90;;
78614;SDS011;67937;52.488;20.952;2023-03-31T18:03:02;4.40;;;2.50;;
78614;SDS011;67937;52.488;20.952;2023-03-31T18:05:30;2.60;;;1.80;;
78614;SDS011;67937;52.488;20.952;2023-03-31T18:07:59;3.20;;;1.60;;
78614;SDS011;67937;52.488;20.952;2023-03-31T18:10:27;2.70;;;1.60;;
78614;SDS011;67937;52.488;20.952;2023-03-31T18:12:55;1.60;;;1.00;;
78614;SDS011;67937;52.488;20.952;2023-03-31T18:15:24;1.60;;;1.50;;
78614;SDS011;67937;52.488;20.952;2023-03-31T18:17:53;0.70;;;0.70;;
78614;SDS011;67937;52.488;20.952;2023-03-31T18:20:21;1.60;;;1.20;;
78614;SDS011;67937;52.488;20.952;2023-03-31T18:22:49;1.40;;;1.30;;
78614;SDS011;67937;52.488;20.952;2023-03-31T18:25:17;3.40;;;1.20;;
78614;SDS011;67937;52.488;20.952;2023-03-31T18:27:46;3.90;;;1.60;;
78614;SDS011;67937;52.488;20.952;2023-03-31T18:30:14;1.50;;;1.40;;
78614;SDS011;67937;52.488;20.952;2023-03-31T18:32:42;1.50;;;1.40;;
78614;SDS011;67937;52.488;20.952;2023-03-31T18:35:10;2.00;;;1.70;;
78614;SDS011;67937;52.488;20.952;2023-03-31T18:37:38;1.90;;;1.70;;
78614;SDS011;67937;52.488;20.952;2023-03-31T18:40:07;2.80;;;2.10;;